sensor_id;sensor_type;location;lat;lon;timestamp;temperature;humidity
3790;DHT22;1910;49.042;9.028;2023-09-12T00:01:21;18.10;99.90
3790;DHT22;1910;49.042;9.028;2023-09-12T00:03:47;18.00;99.90
3790;DHT22;1910;49.042;9.028;2023-09-12T00:06:13;18.00;99.90
3790;DHT22;1910;49.042;9.028;2023-09-12T00:08:38;18.00;99.90
3790;DHT22;1910;49.042;9.028;2023-09-12T00:11:06;18.00;99.90
3790;DHT22;1910;49.042;9.028;2023-09-12T00:13:35;17.90;99.90
3790;DHT22;1910;49.042;9.028;2023-09-12T00:16:01;17.80;99.90
3790;DHT22;1910;49.042;9.028;2023-09-12T00:18:27;17.90;99.90
3790;DHT22;1910;49.042;9.028;2023-09-12T00:20:53;17.80;99.90
3790;DHT22;1910;49.042;9.028;2023-09-12T00:23:19;17.80;99.90
3790;DHT22;1910;49.042;9.028;2023-09-12T00:25:45;17.80;99.90
3790;DHT22;1910;49.042;9.028;2023-09-12T00:28:11;17.80;99.90
3790;DHT22;1910;49.042;9.028;2023-09-12T00:30:36;17.70;99.90
3790;DHT22;1910;49.042;9.028;2023-09-12T00:33:02;17.70;99.90
3790;DHT22;1910;49.042;9.028;2023-09-12T00:35:27;17.70;99.90
3790;DHT22;1910;49.042;9.028;2023-09-12T00:37:53;17.60;99.90
3790;DHT22;1910;49.042;9.028;2023-09-12T00:40:19;17.50;99.90
3790;DHT22;1910;49.042;9.028;2023-09-12T00:42:44;17.50;99.90
3790;DHT22;1910;49.042;9.028;2023-09-12T00:45:10;17.50;99.90
3790;DHT22;1910;49.042;9.028;2023-09-12T00:47:36;17.40;99.90
3790;DHT22;1910;49.042;9.028;2023-09-12T00:50:02;17.30;99.90
3790;DHT22;1910;49.042;9.028;2023-09-12T00:52:31;17.20;99.90
3790;DHT22;1910;49.042;9.028;2023-09-12T00:54:58;17.10;99.90
3790;DHT22;1910;49.042;9.028;2023-09-12T00:57:24;17.10;99.90
3790;DHT22;1910;49.042;9.028;2023-09-12T00:59:51;17.00;99.90
3790;DHT22;1910;49.042;9.028;2023-09-12T01:02:18;16.90;99.90
3790;DHT22;1910;49.042;9.028;2023-09-12T01:04:44;16.80;99.90
3790;DHT22;1910;49.042;9.028;2023-09-12T01:07:10;16.70;99.90
3790;DHT22;1910;49.042;9.028;2023-09-12T01:09:35;16.70;99.90
3790;DHT22;1910;49.042;9.028;2023-09-12T01:12:01;16.80;99.90
3790;DHT22;1910;49.042;9.028;2023-09-12T01:14:30;16.90;99.90
3790;DHT22;1910;49.042;9.028;2023-09-12T01:16:57;16.80;99.90
3790;DHT22;1910;49.042;9.028;2023-09-12T01:19:23;17.00;99.90
3790;DHT22;1910;49.042;9.028;2023-09-12T01:25:14;16.90;99.90
3790;DHT22;1910;49.042;9.028;2023-09-12T01:27:51;16.90;99.90
3790;DHT22;1910;49.042;9.028;2023-09-12T01:30:19;17.00;99.90
3790;DHT22;1910;49.042;9.028;2023-09-12T01:32:45;17.00;99.90
3790;DHT22;1910;49.042;9.028;2023-09-12T01:35:11;17.10;99.90
3790;DHT22;1910;49.042;9.028;2023-09-12T01:37:37;17.10;99.90
3790;DHT22;1910;49.042;9.028;2023-09-12T01:40:03;17.10;99.90
3790;DHT22;1910;49.042;9.028;2023-09-12T01:42:34;17.10;99.90
3790;DHT22;1910;49.042;9.028;2023-09-12T01:45:01;17.00;99.90
3790;DHT22;1910;49.042;9.028;2023-09-12T01:47:29;17.10;99.90
3790;DHT22;1910;49.042;9.028;2023-09-12T01:49:57;17.10;99.90
3790;DHT22;1910;49.042;9.028;2023-09-12T01:52:25;17.10;99.90
3790;DHT22;1910;49.042;9.028;2023-09-12T01:54:52;17.10;99.90
3790;DHT22;1910;49.042;9.028;2023-09-12T01:57:18;17.10;99.90
3790;DHT22;1910;49.042;9.028;2023-09-12T01:59:50;17.10;99.90
3790;DHT22;1910;49.042;9.028;2023-09-12T02:02:16;17.10;99.90
3790;DHT22;1910;49.042;9.028;2023-09-12T02:04:51;17.10;99.90
3790;DHT22;1910;49.042;9.028;2023-09-12T02:07:18;17.10;99.90
3790;DHT22;1910;49.042;9.028;2023-09-12T02:09:43;17.00;99.90
3790;DHT22;1910;49.042;9.028;2023-09-12T02:12:09;17.00;99.90
3790;DHT22;1910;49.042;9.028;2023-09-12T02:14:34;17.00;99.90
3790;DHT22;1910;49.042;9.028;2023-09-12T02:17:00;16.90;99.90
3790;DHT22;1910;49.042;9.028;2023-09-12T02:19:25;16.90;99.90
3790;DHT22;1910;49.042;9.028;2023-09-12T02:21:51;16.70;99.90
3790;DHT22;1910;49.042;9.028;2023-09-12T02:24:16;16.70;99.90
3790;DHT22;1910;49.042;9.028;2023-09-12T02:26:43;16.70;99.90
3790;DHT22;1910;49.042;9.028;2023-09-12T02:29:09;16.70;99.90
3790;DHT22;1910;49.042;9.028;2023-09-12T02:31:35;16.60;99.90
3790;DHT22;1910;49.042;9.028;2023-09-12T02:34:00;16.60;99.90
3790;DHT22;1910;49.042;9.028;2023-09-12T02:36:26;16.60;99.90
3790;DHT22;1910;49.042;9.028;2023-09-12T02:38:51;16.60;99.90
3790;DHT22;1910;49.042;9.028;2023-09-12T02:41:17;16.60;99.90
3790;DHT22;1910;49.042;9.028;2023-09-12T02:43:43;16.60;99.90
3790;DHT22;1910;49.042;9.028;2023-09-12T02:46:08;16.70;99.90
3790;DHT22;1910;49.042;9.028;2023-09-12T02:48:34;16.70;99.90
3790;DHT22;1910;49.042;9.028;2023-09-12T02:50:59;16.60;99.90
3790;DHT22;1910;49.042;9.028;2023-09-12T02:53:25;16.60;99.90
3790;DHT22;1910;49.042;9.028;2023-09-12T02:55:51;16.60;99.90
3790;DHT22;1910;49.042;9.028;2023-09-12T02:58:17;16.60;99.90
3790;DHT22;1910;49.042;9.028;2023-09-12T03:00:42;16.60;99.90
3790;DHT22;1910;49.042;9.028;2023-09-12T03:03:08;16.60;99.90
3790;DHT22;1910;49.042;9.028;2023-09-12T03:05:35;16.60;99.90
3790;DHT22;1910;49.042;9.028;2023-09-12T03:08:01;16.50;99.90
3790;DHT22;1910;49.042;9.028;2023-09-12T03:10:26;16.70;99.90
3790;DHT22;1910;49.042;9.028;2023-09-12T03:12:52;16.60;99.90
3790;DHT22;1910;49.042;9.028;2023-09-12T03:15:18;16.70;99.90
3790;DHT22;1910;49.042;9.028;2023-09-12T03:17:43;16.60;99.90
3790;DHT22;1910;49.042;9.028;2023-09-12T03:20:09;16.50;99.90
3790;DHT22;1910;49.042;9.028;2023-09-12T03:22:35;16.50;99.90
3790;DHT22;1910;49.042;9.028;2023-09-12T03:25:04;16.60;99.90
3790;DHT22;1910;49.042;9.028;2023-09-12T03:27:31;16.60;99.90
3790;DHT22;1910;49.042;9.028;2023-09-12T03:29:57;16.60;99.90
3790;DHT22;1910;49.042;9.028;2023-09-12T03:32:23;16.70;99.90
3790;DHT22;1910;49.042;9.028;2023-09-12T03:34:48;16.70;99.90
3790;DHT22;1910;49.042;9.028;2023-09-12T03:37:14;16.70;99.90
3790;DHT22;1910;49.042;9.028;2023-09-12T03:39:40;16.70;99.90
3790;DHT22;1910;49.042;9.028;2023-09-12T03:42:06;16.50;99.90
3790;DHT22;1910;49.042;9.028;2023-09-12T03:44:31;16.40;99.90
3790;DHT22;1910;49.042;9.028;2023-09-12T03:46:57;16.20;99.90
3790;DHT22;1910;49.042;9.028;2023-09-12T03:49:23;16.20;99.90
3790;DHT22;1910;49.042;9.028;2023-09-12T03:51:49;16.20;99.90
3790;DHT22;1910;49.042;9.028;2023-09-12T03:54:14;16.20;99.90
3790;DHT22;1910;49.042;9.028;2023-09-12T03:56:40;16.20;99.90
3790;DHT22;1910;49.042;9.028;2023-09-12T03:59:05;16.30;99.90
3790;DHT22;1910;49.042;9.028;2023-09-12T04:01:32;16.40;99.90
3790;DHT22;1910;49.042;9.028;2023-09-12T04:03:57;16.30;99.90
3790;DHT22;1910;49.042;9.028;2023-09-12T04:06:23;16.30;99.90
3790;DHT22;1910;49.042;9.028;2023-09-12T04:08:49;16.40;99.90
3790;DHT22;1910;49.042;9.028;2023-09-12T04:11:14;16.50;99.90
3790;DHT22;1910;49.042;9.028;2023-09-12T04:13:40;16.60;99.90
3790;DHT22;1910;49.042;9.028;2023-09-12T04:16:05;16.70;99.90
3790;DHT22;1910;49.042;9.028;2023-09-12T04:18:31;16.80;99.90
3790;DHT22;1910;49.042;9.028;2023-09-12T04:20:56;17.00;99.90
3790;DHT22;1910;49.042;9.028;2023-09-12T04:23:24;17.10;99.90
3790;DHT22;1910;49.042;9.028;2023-09-12T04:25:49;17.10;99.90
3790;DHT22;1910;49.042;9.028;2023-09-12T04:28:15;17.00;99.90
3790;DHT22;1910;49.042;9.028;2023-09-12T04:30:40;16.90;99.90
3790;DHT22;1910;49.042;9.028;2023-09-12T04:33:06;16.80;99.90
3790;DHT22;1910;49.042;9.028;2023-09-12T04:35:35;16.80;99.90
3790;DHT22;1910;49.042;9.028;2023-09-12T04:38:01;16.80;99.90
3790;DHT22;1910;49.042;9.028;2023-09-12T04:40:26;17.00;99.90
3790;DHT22;1910;49.042;9.028;2023-09-12T04:42:53;17.00;99.90
3790;DHT22;1910;49.042;9.028;2023-09-12T04:45:18;17.10;99.90
3790;DHT22;1910;49.042;9.028;2023-09-12T04:47:44;17.10;99.90
3790;DHT22;1910;49.042;9.028;2023-09-12T04:50:09;17.10;99.90
3790;DHT22;1910;49.042;9.028;2023-09-12T04:52:37;17.10;99.90
3790;DHT22;1910;49.042;9.028;2023-09-12T04:55:03;16.90;99.90
3790;DHT22;1910;49.042;9.028;2023-09-12T04:57:30;16.90;99.90
3790;DHT22;1910;49.042;9.028;2023-09-12T04:59:56;17.00;99.90
3790;DHT22;1910;49.042;9.028;2023-09-12T05:02:22;17.00;99.90
3790;DHT22;1910;49.042;9.028;2023-09-12T05:04:48;17.00;99.90
3790;DHT22;1910;49.042;9.028;2023-09-12T05:07:13;17.00;99.90
3790;DHT22;1910;49.042;9.028;2023-09-12T05:09:39;18.40;99.90
3790;DHT22;1910;49.042;9.028;2023-09-12T05:12:05;17.20;99.90
3790;DHT22;1910;49.042;9.028;2023-09-12T05:14:30;17.40;99.90
3790;DHT22;1910;49.042;9.028;2023-09-12T05:16:56;17.60;99.90
3790;DHT22;1910;49.042;9.028;2023-09-12T05:19:21;17.80;99.90
3790;DHT22;1910;49.042;9.028;2023-09-12T05:21:48;17.80;99.90
3790;DHT22;1910;49.042;9.028;2023-09-12T05:24:13;18.00;99.90
3790;DHT22;1910;49.042;9.028;2023-09-12T05:26:39;18.20;99.90
3790;DHT22;1910;49.042;9.028;2023-09-12T05:29:04;18.80;99.90
3790;DHT22;1910;49.042;9.028;2023-09-12T05:31:31;19.40;99.90
3790;DHT22;1910;49.042;9.028;2023-09-12T05:33:57;19.90;99.90
3790;DHT22;1910;49.042;9.028;2023-09-12T05:36:22;20.00;99.90
3790;DHT22;1910;49.042;9.028;2023-09-12T05:38:48;20.10;99.90
3790;DHT22;1910;49.042;9.028;2023-09-12T05:41:13;20.10;99.90
3790;DHT22;1910;49.042;9.028;2023-09-12T05:43:39;20.30;99.90
3790;DHT22;1910;49.042;9.028;2023-09-12T05:46:04;20.10;99.90
3790;DHT22;1910;49.042;9.028;2023-09-12T05:48:30;20.00;99.90
3790;DHT22;1910;49.042;9.028;2023-09-12T05:50:55;20.10;99.90
3790;DHT22;1910;49.042;9.028;2023-09-12T05:53:21;20.40;99.90
3790;DHT22;1910;49.042;9.028;2023-09-12T05:55:46;20.00;99.90
3790;DHT22;1910;49.042;9.028;2023-09-12T05:58:12;19.80;99.90
3790;DHT22;1910;49.042;9.028;2023-09-12T06:00:38;19.60;99.90
3790;DHT22;1910;49.042;9.028;2023-09-12T06:03:03;19.40;99.90
3790;DHT22;1910;49.042;9.028;2023-09-12T06:05:29;19.40;99.90
3790;DHT22;1910;49.042;9.028;2023-09-12T06:07:55;21.60;99.90
3790;DHT22;1910;49.042;9.028;2023-09-12T06:10:21;21.60;99.90
3790;DHT22;1910;49.042;9.028;2023-09-12T06:12:47;22.80;99.90
3790;DHT22;1910;49.042;9.028;2023-09-12T06:15:12;23.40;99.90
3790;DHT22;1910;49.042;9.028;2023-09-12T06:17:38;23.70;99.90
3790;DHT22;1910;49.042;9.028;2023-09-12T06:20:04;23.40;99.90
3790;DHT22;1910;49.042;9.028;2023-09-12T06:22:31;22.70;99.90
3790;DHT22;1910;49.042;9.028;2023-09-12T06:24:58;22.40;99.90
3790;DHT22;1910;49.042;9.028;2023-09-12T06:27:23;21.80;99.90
3790;DHT22;1910;49.042;9.028;2023-09-12T06:29:49;21.50;99.90
3790;DHT22;1910;49.042;9.028;2023-09-12T06:32:15;21.60;99.90
3790;DHT22;1910;49.042;9.028;2023-09-12T06:34:41;21.60;99.90
3790;DHT22;1910;49.042;9.028;2023-09-12T06:37:07;21.60;99.90
3790;DHT22;1910;49.042;9.028;2023-09-12T06:39:33;21.70;99.90
3790;DHT22;1910;49.042;9.028;2023-09-12T06:41:58;21.90;99.90
3790;DHT22;1910;49.042;9.028;2023-09-12T06:44:24;22.20;99.90
3790;DHT22;1910;49.042;9.028;2023-09-12T06:46:49;22.50;99.90
3790;DHT22;1910;49.042;9.028;2023-09-12T06:49:15;22.70;99.90
3790;DHT22;1910;49.042;9.028;2023-09-12T06:51:40;22.70;99.90
3790;DHT22;1910;49.042;9.028;2023-09-12T06:54:06;22.80;99.90
3790;DHT22;1910;49.042;9.028;2023-09-12T06:56:32;22.80;99.90
3790;DHT22;1910;49.042;9.028;2023-09-12T06:58:57;22.80;99.90
3790;DHT22;1910;49.042;9.028;2023-09-12T07:01:24;22.40;99.90
3790;DHT22;1910;49.042;9.028;2023-09-12T07:03:50;22.60;99.90
3790;DHT22;1910;49.042;9.028;2023-09-12T07:06:19;22.60;99.90
3790;DHT22;1910;49.042;9.028;2023-09-12T07:08:44;22.50;99.90
3790;DHT22;1910;49.042;9.028;2023-09-12T07:11:10;22.60;99.90
3790;DHT22;1910;49.042;9.028;2023-09-12T07:13:35;22.90;99.90
3790;DHT22;1910;49.042;9.028;2023-09-12T07:16:01;23.20;99.90
3790;DHT22;1910;49.042;9.028;2023-09-12T07:18:30;23.30;99.90
3790;DHT22;1910;49.042;9.028;2023-09-12T07:21:02;23.40;99.90
3790;DHT22;1910;49.042;9.028;2023-09-12T07:23:28;23.60;99.90
3790;DHT22;1910;49.042;9.028;2023-09-12T07:25:55;24.00;99.90
3790;DHT22;1910;49.042;9.028;2023-09-12T07:28:23;24.30;99.90
3790;DHT22;1910;49.042;9.028;2023-09-12T07:30:49;26.10;99.90
3790;DHT22;1910;49.042;9.028;2023-09-12T07:33:14;28.60;99.90
3790;DHT22;1910;49.042;9.028;2023-09-12T07:35:40;30.00;99.90
3790;DHT22;1910;49.042;9.028;2023-09-12T07:38:05;32.60;99.90
3790;DHT22;1910;49.042;9.028;2023-09-12T07:40:31;34.00;99.90
3790;DHT22;1910;49.042;9.028;2023-09-12T07:42:56;35.20;97.30
3790;DHT22;1910;49.042;9.028;2023-09-12T07:45:22;35.30;93.90
3790;DHT22;1910;49.042;9.028;2023-09-12T07:47:47;34.60;92.80
3790;DHT22;1910;49.042;9.028;2023-09-12T07:50:13;34.50;90.90
3790;DHT22;1910;49.042;9.028;2023-09-12T07:52:39;34.70;90.30
3790;DHT22;1910;49.042;9.028;2023-09-12T07:55:06;33.00;91.00
3790;DHT22;1910;49.042;9.028;2023-09-12T07:57:32;32.40;92.00
3790;DHT22;1910;49.042;9.028;2023-09-12T07:59:58;32.30;92.90
3790;DHT22;1910;49.042;9.028;2023-09-12T08:02:24;32.40;93.80
3790;DHT22;1910;49.042;9.028;2023-09-12T08:04:50;32.40;95.30
3790;DHT22;1910;49.042;9.028;2023-09-12T08:07:17;32.70;94.30
3790;DHT22;1910;49.042;9.028;2023-09-12T08:09:54;32.30;93.60
3790;DHT22;1910;49.042;9.028;2023-09-12T08:12:21;32.70;93.50
3790;DHT22;1910;49.042;9.028;2023-09-12T08:14:47;33.10;93.40
3790;DHT22;1910;49.042;9.028;2023-09-12T08:17:13;34.40;91.70
3790;DHT22;1910;49.042;9.028;2023-09-12T08:19:39;35.40;89.50
3790;DHT22;1910;49.042;9.028;2023-09-12T08:22:06;36.40;86.40
3790;DHT22;1910;49.042;9.028;2023-09-12T08:24:32;36.60;82.60
3790;DHT22;1910;49.042;9.028;2023-09-12T08:26:59;36.60;80.80
3790;DHT22;1910;49.042;9.028;2023-09-12T08:29:24;36.80;78.20
3790;DHT22;1910;49.042;9.028;2023-09-12T08:31:50;37.40;78.10
3790;DHT22;1910;49.042;9.028;2023-09-12T08:34:15;38.00;74.90
3790;DHT22;1910;49.042;9.028;2023-09-12T08:36:41;39.00;72.10
3790;DHT22;1910;49.042;9.028;2023-09-12T08:39:10;39.40;70.20
3790;DHT22;1910;49.042;9.028;2023-09-12T08:41:36;39.80;67.80
3790;DHT22;1910;49.042;9.028;2023-09-12T08:44:02;39.90;63.30
3790;DHT22;1910;49.042;9.028;2023-09-12T08:46:31;39.60;64.80
3790;DHT22;1910;49.042;9.028;2023-09-12T08:48:57;40.00;62.60
3790;DHT22;1910;49.042;9.028;2023-09-12T08:51:23;39.50;62.10
3790;DHT22;1910;49.042;9.028;2023-09-12T08:53:52;38.30;64.00
3790;DHT22;1910;49.042;9.028;2023-09-12T08:56:18;37.80;64.70
3790;DHT22;1910;49.042;9.028;2023-09-12T08:58:44;37.50;64.40
3790;DHT22;1910;49.042;9.028;2023-09-12T09:01:13;36.80;69.20
3790;DHT22;1910;49.042;9.028;2023-09-12T09:03:42;36.80;68.50
3790;DHT22;1910;49.042;9.028;2023-09-12T09:06:11;37.70;68.10
3790;DHT22;1910;49.042;9.028;2023-09-12T09:08:38;37.40;65.30
3790;DHT22;1910;49.042;9.028;2023-09-12T09:11:04;36.40;67.10
3790;DHT22;1910;49.042;9.028;2023-09-12T09:13:34;36.30;67.70
3790;DHT22;1910;49.042;9.028;2023-09-12T09:16:16;36.60;67.80
3790;DHT22;1910;49.042;9.028;2023-09-12T09:18:55;36.20;66.70
3790;DHT22;1910;49.042;9.028;2023-09-12T09:21:22;35.90;70.40
3790;DHT22;1910;49.042;9.028;2023-09-12T09:23:55;35.30;69.30
3790;DHT22;1910;49.042;9.028;2023-09-12T09:26:22;36.00;69.60
3790;DHT22;1910;49.042;9.028;2023-09-12T09:29:10;36.30;69.60
3790;DHT22;1910;49.042;9.028;2023-09-12T09:31:40;35.70;69.60
3790;DHT22;1910;49.042;9.028;2023-09-12T09:34:11;36.30;70.50
3790;DHT22;1910;49.042;9.028;2023-09-12T09:36:40;37.40;67.50
3790;DHT22;1910;49.042;9.028;2023-09-12T09:39:05;38.20;64.40
3790;DHT22;1910;49.042;9.028;2023-09-12T09:41:31;38.30;62.00
3790;DHT22;1910;49.042;9.028;2023-09-12T09:43:58;37.50;63.00
3790;DHT22;1910;49.042;9.028;2023-09-12T09:46:25;36.30;65.80
3790;DHT22;1910;49.042;9.028;2023-09-12T09:48:51;36.50;66.70
3790;DHT22;1910;49.042;9.028;2023-09-12T09:51:17;36.70;65.30
3790;DHT22;1910;49.042;9.028;2023-09-12T09:53:43;37.40;64.90
3790;DHT22;1910;49.042;9.028;2023-09-12T09:56:14;38.20;63.40
3790;DHT22;1910;49.042;9.028;2023-09-12T09:58:47;38.60;60.70
3790;DHT22;1910;49.042;9.028;2023-09-12T10:01:21;38.40;61.30
3790;DHT22;1910;49.042;9.028;2023-09-12T10:03:50;38.60;59.10
3790;DHT22;1910;49.042;9.028;2023-09-12T10:06:17;38.40;59.60
3790;DHT22;1910;49.042;9.028;2023-09-12T10:08:45;37.30;60.70
3790;DHT22;1910;49.042;9.028;2023-09-12T10:11:14;35.90;63.30
3790;DHT22;1910;49.042;9.028;2023-09-12T10:13:49;34.60;66.30
3790;DHT22;1910;49.042;9.028;2023-09-12T10:16:16;33.40;71.50
3790;DHT22;1910;49.042;9.028;2023-09-12T10:18:49;32.90;73.60
3790;DHT22;1910;49.042;9.028;2023-09-12T10:21:29;32.60;75.50
3790;DHT22;1910;49.042;9.028;2023-09-12T10:23:58;32.10;81.00
3790;DHT22;1910;49.042;9.028;2023-09-12T10:26:24;31.60;79.70
3790;DHT22;1910;49.042;9.028;2023-09-12T10:28:50;31.40;81.80
3790;DHT22;1910;49.042;9.028;2023-09-12T10:31:16;31.30;81.40
3790;DHT22;1910;49.042;9.028;2023-09-12T10:33:43;31.10;82.60
3790;DHT22;1910;49.042;9.028;2023-09-12T10:36:11;31.20;81.70
3790;DHT22;1910;49.042;9.028;2023-09-12T10:38:42;31.20;81.40
3790;DHT22;1910;49.042;9.028;2023-09-12T10:41:11;31.20;80.30
3790;DHT22;1910;49.042;9.028;2023-09-12T10:43:38;31.50;80.80
3790;DHT22;1910;49.042;9.028;2023-09-12T10:46:03;31.30;79.40
3790;DHT22;1910;49.042;9.028;2023-09-12T10:48:31;30.70;82.70
3790;DHT22;1910;49.042;9.028;2023-09-12T10:51:01;30.40;89.50
3790;DHT22;1910;49.042;9.028;2023-09-12T10:53:30;30.60;86.60
3790;DHT22;1910;49.042;9.028;2023-09-12T10:56:16;30.60;84.20
3790;DHT22;1910;49.042;9.028;2023-09-12T11:01:33;30.90;84.90
3790;DHT22;1910;49.042;9.028;2023-09-12T11:06:46;31.40;85.40
3790;DHT22;1910;49.042;9.028;2023-09-12T11:09:26;31.10;84.80
3790;DHT22;1910;49.042;9.028;2023-09-12T11:12:02;30.90;84.80
3790;DHT22;1910;49.042;9.028;2023-09-12T11:14:28;30.40;83.30
3790;DHT22;1910;49.042;9.028;2023-09-12T11:19:43;31.10;84.10
3790;DHT22;1910;49.042;9.028;2023-09-12T11:22:28;31.10;83.80
3790;DHT22;1910;49.042;9.028;2023-09-12T11:24:55;30.60;86.40
3790;DHT22;1910;49.042;9.028;2023-09-12T11:27:23;30.90;87.10
3790;DHT22;1910;49.042;9.028;2023-09-12T11:29:48;30.90;82.60
3790;DHT22;1910;49.042;9.028;2023-09-12T11:32:36;30.80;84.80
3790;DHT22;1910;49.042;9.028;2023-09-12T11:35:06;30.40;84.80
3790;DHT22;1910;49.042;9.028;2023-09-12T11:37:32;30.60;87.40
3790;DHT22;1910;49.042;9.028;2023-09-12T11:39:58;30.70;85.50
3790;DHT22;1910;49.042;9.028;2023-09-12T11:42:24;30.70;81.30
3790;DHT22;1910;49.042;9.028;2023-09-12T11:44:53;30.80;82.00
3790;DHT22;1910;49.042;9.028;2023-09-12T11:47:19;30.80;83.20
3790;DHT22;1910;49.042;9.028;2023-09-12T11:49:45;30.70;80.40
3790;DHT22;1910;49.042;9.028;2023-09-12T11:52:13;30.70;80.60
3790;DHT22;1910;49.042;9.028;2023-09-12T11:54:40;30.80;78.80
3790;DHT22;1910;49.042;9.028;2023-09-12T11:57:13;31.00;78.50
3790;DHT22;1910;49.042;9.028;2023-09-12T11:59:41;30.80;78.30
3790;DHT22;1910;49.042;9.028;2023-09-12T12:02:13;30.20;76.20
3790;DHT22;1910;49.042;9.028;2023-09-12T12:04:39;29.80;76.00
3790;DHT22;1910;49.042;9.028;2023-09-12T12:07:06;29.50;78.70
3790;DHT22;1910;49.042;9.028;2023-09-12T12:09:33;29.10;79.60
3790;DHT22;1910;49.042;9.028;2023-09-12T12:12:10;29.00;80.30
3790;DHT22;1910;49.042;9.028;2023-09-12T12:14:36;28.70;83.70
3790;DHT22;1910;49.042;9.028;2023-09-12T12:17:28;28.60;84.10
3790;DHT22;1910;49.042;9.028;2023-09-12T12:19:54;28.70;84.80
3790;DHT22;1910;49.042;9.028;2023-09-12T12:22:21;28.70;85.00
3790;DHT22;1910;49.042;9.028;2023-09-12T12:24:48;28.60;84.20
3790;DHT22;1910;49.042;9.028;2023-09-12T12:27:15;28.60;85.80
3790;DHT22;1910;49.042;9.028;2023-09-12T12:29:41;28.90;90.50
3790;DHT22;1910;49.042;9.028;2023-09-12T12:32:10;29.10;90.70
3790;DHT22;1910;49.042;9.028;2023-09-12T12:34:36;29.70;90.60
3790;DHT22;1910;49.042;9.028;2023-09-12T12:37:02;30.70;91.00
3790;DHT22;1910;49.042;9.028;2023-09-12T12:39:28;31.30;81.10
3790;DHT22;1910;49.042;9.028;2023-09-12T12:41:54;31.70;79.30
3790;DHT22;1910;49.042;9.028;2023-09-12T12:44:21;31.60;77.30
3790;DHT22;1910;49.042;9.028;2023-09-12T12:46:50;31.90;79.10
3790;DHT22;1910;49.042;9.028;2023-09-12T12:49:20;31.90;78.20
3790;DHT22;1910;49.042;9.028;2023-09-12T12:51:49;31.60;75.90
3790;DHT22;1910;49.042;9.028;2023-09-12T12:54:15;31.10;74.90
3790;DHT22;1910;49.042;9.028;2023-09-12T12:56:40;30.70;74.50
3790;DHT22;1910;49.042;9.028;2023-09-12T12:59:08;30.40;78.10
3790;DHT22;1910;49.042;9.028;2023-09-12T13:01:40;30.10;78.20
3790;DHT22;1910;49.042;9.028;2023-09-12T13:04:07;29.70;76.30
3790;DHT22;1910;49.042;9.028;2023-09-12T13:06:33;29.60;73.40
3790;DHT22;1910;49.042;9.028;2023-09-12T13:09:02;29.90;72.30
3790;DHT22;1910;49.042;9.028;2023-09-12T13:11:31;30.50;71.40
3790;DHT22;1910;49.042;9.028;2023-09-12T13:14:00;31.10;69.20
3790;DHT22;1910;49.042;9.028;2023-09-12T13:16:26;31.70;67.90
3790;DHT22;1910;49.042;9.028;2023-09-12T13:18:51;32.50;63.20
3790;DHT22;1910;49.042;9.028;2023-09-12T13:21:17;33.10;61.40
3790;DHT22;1910;49.042;9.028;2023-09-12T13:23:42;33.50;62.10
3790;DHT22;1910;49.042;9.028;2023-09-12T13:26:08;33.70;60.10
3790;DHT22;1910;49.042;9.028;2023-09-12T13:28:34;34.00;58.60
3790;DHT22;1910;49.042;9.028;2023-09-12T13:31:00;34.30;57.70
3790;DHT22;1910;49.042;9.028;2023-09-12T13:33:26;34.30;59.70
3790;DHT22;1910;49.042;9.028;2023-09-12T13:35:51;33.60;59.80
3790;DHT22;1910;49.042;9.028;2023-09-12T13:38:17;32.90;59.20
3790;DHT22;1910;49.042;9.028;2023-09-12T13:40:45;32.50;59.60
3790;DHT22;1910;49.042;9.028;2023-09-12T13:43:11;32.30;59.40
3790;DHT22;1910;49.042;9.028;2023-09-12T13:45:37;31.90;59.70
3790;DHT22;1910;49.042;9.028;2023-09-12T13:48:03;31.60;61.00
3790;DHT22;1910;49.042;9.028;2023-09-12T13:50:30;31.20;62.90
3790;DHT22;1910;49.042;9.028;2023-09-12T13:52:58;31.10;64.80
3790;DHT22;1910;49.042;9.028;2023-09-12T13:55:25;31.10;65.60
3790;DHT22;1910;49.042;9.028;2023-09-12T13:57:50;31.20;64.30
3790;DHT22;1910;49.042;9.028;2023-09-12T14:00:16;31.20;63.00
3790;DHT22;1910;49.042;9.028;2023-09-12T14:02:42;31.20;62.80
3790;DHT22;1910;49.042;9.028;2023-09-12T14:05:08;31.10;63.10
3790;DHT22;1910;49.042;9.028;2023-09-12T14:07:33;31.10;62.80
3790;DHT22;1910;49.042;9.028;2023-09-12T14:10:00;31.10;63.10
3790;DHT22;1910;49.042;9.028;2023-09-12T14:12:27;31.10;62.80
3790;DHT22;1910;49.042;9.028;2023-09-12T14:14:52;31.10;61.90
3790;DHT22;1910;49.042;9.028;2023-09-12T14:17:18;31.10;62.70
3790;DHT22;1910;49.042;9.028;2023-09-12T14:19:43;31.10;63.30
3790;DHT22;1910;49.042;9.028;2023-09-12T14:22:09;31.30;62.10
3790;DHT22;1910;49.042;9.028;2023-09-12T14:24:35;31.40;62.70
3790;DHT22;1910;49.042;9.028;2023-09-12T14:27:00;31.30;63.50
3790;DHT22;1910;49.042;9.028;2023-09-12T14:29:26;31.30;65.80
3790;DHT22;1910;49.042;9.028;2023-09-12T14:31:56;31.20;63.30
3790;DHT22;1910;49.042;9.028;2023-09-12T14:34:25;31.10;64.90
3790;DHT22;1910;49.042;9.028;2023-09-12T14:36:54;31.10;64.50
3790;DHT22;1910;49.042;9.028;2023-09-12T14:39:21;30.90;63.90
3790;DHT22;1910;49.042;9.028;2023-09-12T14:41:46;30.90;63.90
3790;DHT22;1910;49.042;9.028;2023-09-12T14:44:17;31.00;63.30
3790;DHT22;1910;49.042;9.028;2023-09-12T14:46:43;31.30;65.80
3790;DHT22;1910;49.042;9.028;2023-09-12T14:49:09;31.40;62.50
3790;DHT22;1910;49.042;9.028;2023-09-12T14:51:36;31.30;60.70
3790;DHT22;1910;49.042;9.028;2023-09-12T14:54:05;31.30;60.90
3790;DHT22;1910;49.042;9.028;2023-09-12T14:56:32;31.30;64.40
3790;DHT22;1910;49.042;9.028;2023-09-12T14:58:57;31.40;64.50
3790;DHT22;1910;49.042;9.028;2023-09-12T15:01:23;31.60;63.50
3790;DHT22;1910;49.042;9.028;2023-09-12T15:03:50;31.70;63.50
3790;DHT22;1910;49.042;9.028;2023-09-12T15:06:15;31.80;62.80
3790;DHT22;1910;49.042;9.028;2023-09-12T15:08:41;31.60;61.80
3790;DHT22;1910;49.042;9.028;2023-09-12T15:11:06;31.50;63.00
3790;DHT22;1910;49.042;9.028;2023-09-12T15:13:32;31.40;63.30
3790;DHT22;1910;49.042;9.028;2023-09-12T15:15:58;31.50;63.90
3790;DHT22;1910;49.042;9.028;2023-09-12T15:18:23;31.80;64.20
3790;DHT22;1910;49.042;9.028;2023-09-12T15:20:51;31.70;60.20
3790;DHT22;1910;49.042;9.028;2023-09-12T15:23:17;32.00;61.70
3790;DHT22;1910;49.042;9.028;2023-09-12T15:25:43;32.20;60.40
3790;DHT22;1910;49.042;9.028;2023-09-12T15:28:08;32.40;60.30
3790;DHT22;1910;49.042;9.028;2023-09-12T15:30:34;32.70;62.80
3790;DHT22;1910;49.042;9.028;2023-09-12T15:32:59;32.80;60.60
3790;DHT22;1910;49.042;9.028;2023-09-12T15:35:25;32.30;60.20
3790;DHT22;1910;49.042;9.028;2023-09-12T15:37:50;32.30;60.50
3790;DHT22;1910;49.042;9.028;2023-09-12T15:40:16;32.30;63.70
3790;DHT22;1910;49.042;9.028;2023-09-12T15:42:42;32.40;63.70
3790;DHT22;1910;49.042;9.028;2023-09-12T15:45:09;32.20;62.20
3790;DHT22;1910;49.042;9.028;2023-09-12T15:47:35;32.00;65.50
3790;DHT22;1910;49.042;9.028;2023-09-12T15:50:01;31.60;62.80
3790;DHT22;1910;49.042;9.028;2023-09-12T15:52:28;31.80;65.40
3790;DHT22;1910;49.042;9.028;2023-09-12T15:54:53;31.90;67.20
3790;DHT22;1910;49.042;9.028;2023-09-12T15:57:19;31.90;67.50
3790;DHT22;1910;49.042;9.028;2023-09-12T15:59:45;32.00;68.30
3790;DHT22;1910;49.042;9.028;2023-09-12T16:02:11;31.80;68.00
3790;DHT22;1910;49.042;9.028;2023-09-12T16:04:36;31.90;67.30
3790;DHT22;1910;49.042;9.028;2023-09-12T16:07:02;31.70;69.90
3790;DHT22;1910;49.042;9.028;2023-09-12T16:09:27;31.70;73.30
3790;DHT22;1910;49.042;9.028;2023-09-12T16:11:53;31.70;76.40